createdAt,value
2023-01-19T00:00:21.831Z,18.50
2023-01-19T00:05:21.719Z,16.10
2023-01-19T00:10:21.679Z,17.00
2023-01-19T00:15:21.747Z,16.40
2023-01-19T00:20:21.676Z,18.30
2023-01-19T00:25:21.641Z,14.80
2023-01-19T00:30:21.580Z,18.30
2023-01-19T00:35:21.506Z,16.80
2023-01-19T00:40:21.368Z,18.50
2023-01-19T00:45:21.314Z,16.90
2023-01-19T00:50:21.230Z,17.20
2023-01-19T00:55:21.216Z,19.40
2023-01-19T01:00:21.234Z,16.80
2023-01-19T01:05:21.172Z,18.60
2023-01-19T01:10:21.082Z,21.60
2023-01-19T01:15:21.039Z,18.70
2023-01-19T01:20:20.943Z,13.50
2023-01-19T01:25:21.027Z,18.60
2023-01-19T01:30:20.769Z,20.20
2023-01-19T01:35:21.925Z,17.20
2023-01-19T01:40:20.691Z,21.40
2023-01-19T01:45:20.654Z,18.50
2023-01-19T01:50:20.575Z,19.60
2023-01-19T01:55:20.587Z,18.10
2023-01-19T02:00:20.505Z,18.50
2023-01-19T02:05:20.648Z,19.30
2023-01-19T02:10:20.578Z,19.30
2023-01-19T02:15:21.561Z,17.80
2023-01-19T02:20:20.287Z,17.70
2023-01-19T02:25:20.221Z,21.00
2023-01-19T02:30:20.216Z,15.10
2023-01-19T02:35:20.131Z,23.00
2023-01-19T02:40:20.056Z,14.80
2023-01-19T02:45:20.159Z,21.40
2023-01-19T02:50:20.107Z,19.10
2023-01-19T02:55:20.050Z,17.30
2023-01-19T03:00:20.020Z,17.40
2023-01-19T03:05:19.924Z,16.30
2023-01-19T03:10:19.851Z,16.80
2023-01-19T03:15:19.692Z,13.80
2023-01-19T03:20:19.593Z,15.60
2023-01-19T03:25:19.547Z,17.10
2023-01-19T03:30:19.516Z,15.10
2023-01-19T03:35:19.428Z,18.10
2023-01-19T03:40:19.426Z,14.70
2023-01-19T03:45:19.355Z,17.00
2023-01-19T03:50:19.324Z,15.70
2023-01-19T03:55:19.337Z,21.50
2023-01-19T04:00:19.162Z,15.40
2023-01-19T04:05:19.261Z,17.10
2023-01-19T04:10:19.140Z,16.80
2023-01-19T04:15:19.039Z,21.20
2023-01-19T04:20:19.116Z,20.80
2023-01-19T04:25:19.057Z,19.50
2023-01-19T04:30:18.829Z,17.70
2023-01-19T04:35:18.821Z,21.80
2023-01-19T04:40:27.584Z,21.90
2023-01-19T04:45:18.868Z,28.20
2023-01-19T04:50:18.724Z,43.10
2023-01-19T04:55:23.088Z,39.80
2023-01-19T05:00:19.529Z,29.80
2023-01-19T05:05:20.942Z,50.80
2023-01-19T05:10:18.477Z,44.50
2023-01-19T05:15:18.372Z,35.10
2023-01-19T05:20:18.365Z,35.80
2023-01-19T05:25:18.502Z,50.30
2023-01-19T05:30:18.219Z,32.00
2023-01-19T05:35:27.789Z,85.50
2023-01-19T05:40:19.147Z,32.60
2023-01-19T05:45:18.139Z,37.00
2023-01-19T05:50:18.126Z,29.50
2023-01-19T05:55:18.056Z,35.10
2023-01-19T06:00:18.133Z,42.70
2023-01-19T06:05:17.911Z,36.40
2023-01-19T06:10:17.977Z,30.50
2023-01-19T06:15:17.768Z,20.00
2023-01-19T06:20:17.824Z,21.30
2023-01-19T06:25:17.705Z,21.60
2023-01-19T06:30:17.658Z,23.00
2023-01-19T06:35:17.650Z,13.70
2023-01-19T06:40:17.554Z,13.90
2023-01-19T06:45:17.544Z,16.40
2023-01-19T06:50:17.421Z,13.90
2023-01-19T06:55:17.363Z,19.50
2023-01-19T07:00:17.271Z,18.00
2023-01-19T07:05:17.301Z,14.40
2023-01-19T07:10:17.138Z,13.10
2023-01-19T07:15:17.076Z,10.50
2023-01-19T07:20:17.214Z,10.00
2023-01-19T07:25:17.018Z,8.20
2023-01-19T07:30:17.040Z,9.20
2023-01-19T07:35:16.910Z,9.40
2023-01-19T07:40:16.898Z,10.30
2023-01-19T07:45:16.869Z,14.20
2023-01-19T07:50:16.664Z,13.20
2023-01-19T07:55:16.713Z,16.10
2023-01-19T08:00:16.605Z,19.20
2023-01-19T08:05:16.586Z,18.00
2023-01-19T08:10:17.780Z,19.40
2023-01-19T08:15:16.494Z,19.50
2023-01-19T08:20:16.391Z,16.90
2023-01-19T08:25:16.477Z,21.10
2023-01-19T08:30:16.305Z,21.00
2023-01-19T08:35:16.198Z,22.60
2023-01-19T08:40:17.240Z,23.90
2023-01-19T08:45:16.308Z,22.50
2023-01-19T08:50:16.072Z,20.90
2023-01-19T08:55:16.053Z,24.30
2023-01-19T09:00:16.204Z,21.70
2023-01-19T09:05:16.312Z,20.90
2023-01-19T09:10:16.056Z,20.80
2023-01-19T09:15:16.138Z,24.00
2023-01-19T09:20:15.715Z,28.10
2023-01-19T09:25:15.767Z,27.80
2023-01-19T09:30:16.893Z,23.20
2023-01-19T09:35:16.580Z,23.20
2023-01-19T09:40:15.481Z,23.20
2023-01-19T09:45:15.476Z,27.50
2023-01-19T09:50:15.438Z,25.30
2023-01-19T09:55:15.432Z,27.80
2023-01-19T10:00:15.340Z,27.00
2023-01-19T10:05:15.270Z,26.90
2023-01-19T10:10:15.165Z,23.70
2023-01-19T10:15:15.158Z,18.10
2023-01-19T10:20:15.071Z,17.60
2023-01-19T10:25:15.011Z,25.00
2023-01-19T10:30:14.959Z,26.60
2023-01-19T10:35:14.931Z,31.10
2023-01-19T10:40:23.679Z,34.20
2023-01-19T10:45:15.967Z,39.70
2023-01-19T10:50:14.792Z,41.30
2023-01-19T10:55:14.730Z,42.60
2023-01-19T11:00:14.744Z,46.00
2023-01-19T11:05:14.568Z,53.90
2023-01-19T11:10:14.608Z,52.00
2023-01-19T11:15:14.523Z,57.10
2023-01-19T11:20:15.457Z,56.00
2023-01-19T11:25:14.392Z,48.80
2023-01-19T11:30:14.327Z,49.70
2023-01-19T11:35:14.281Z,53.90
2023-01-19T11:40:14.448Z,50.00
2023-01-19T11:45:14.226Z,57.90
2023-01-19T11:50:14.098Z,54.70
2023-01-19T11:55:14.225Z,54.80
2023-01-19T12:00:14.000Z,52.90
2023-01-19T12:05:13.979Z,53.70
2023-01-19T12:10:13.859Z,54.80
2023-01-19T12:15:13.793Z,58.70
2023-01-19T12:20:13.813Z,54.50
2023-01-19T12:25:13.738Z,47.50
2023-01-19T12:30:13.664Z,56.50
2023-01-19T12:35:13.648Z,60.80
2023-01-19T12:40:13.539Z,59.60
2023-01-19T12:45:13.533Z,53.00
2023-01-19T12:50:13.415Z,59.50
2023-01-19T12:55:13.439Z,63.20
2023-01-19T13:00:13.365Z,50.40
2023-01-19T13:05:13.330Z,55.50
2023-01-19T13:10:13.301Z,51.20
2023-01-19T13:15:13.267Z,53.00
2023-01-19T13:20:13.476Z,45.10
2023-01-19T13:25:13.230Z,48.40
2023-01-19T13:30:13.193Z,51.40
2023-01-19T13:35:13.015Z,50.80
2023-01-19T13:40:12.901Z,44.20
2023-01-19T13:45:13.370Z,48.10
2023-01-19T13:50:12.799Z,44.20
2023-01-19T13:55:12.775Z,40.60
2023-01-19T14:00:12.939Z,37.40
2023-01-19T14:05:12.628Z,46.00
2023-01-19T14:10:12.587Z,43.40
2023-01-19T14:15:12.547Z,45.10
2023-01-19T14:20:12.477Z,39.60
2023-01-19T14:25:13.461Z,41.30
2023-01-19T14:30:15.860Z,38.50
2023-01-19T14:35:12.410Z,44.60
2023-01-19T14:40:12.245Z,39.30
2023-01-19T14:45:12.166Z,36.90
2023-01-19T14:50:12.164Z,43.70
2023-01-19T14:55:12.090Z,45.50
2023-01-19T15:00:12.114Z,39.00
2023-01-19T15:05:11.975Z,41.10
2023-01-19T15:10:11.903Z,38.10
2023-01-19T15:15:11.973Z,52.50
2023-01-19T15:20:11.812Z,44.60
2023-01-19T15:25:11.789Z,54.30
2023-01-19T15:30:11.741Z,51.20
2023-01-19T15:35:11.885Z,49.50
2023-01-19T15:40:11.582Z,48.70
2023-01-19T15:45:11.552Z,51.30
2023-01-19T15:50:11.514Z,48.60
2023-01-19T15:55:11.632Z,48.10
2023-01-19T16:00:11.417Z,50.80
2023-01-19T16:05:12.775Z,48.60
2023-01-19T16:10:12.487Z,45.40
2023-01-19T16:15:11.635Z,41.80
2023-01-19T16:20:14.506Z,43.00
2023-01-19T16:25:11.107Z,38.40
2023-01-19T16:30:11.471Z,44.80
2023-01-19T16:35:12.083Z,45.50
2023-01-19T16:40:11.668Z,49.60
2023-01-19T16:45:11.006Z,40.70
2023-01-19T16:50:11.369Z,38.90
2023-01-19T16:55:10.848Z,36.80
2023-01-19T17:00:11.053Z,45.10
2023-01-19T17:05:11.003Z,32.60
2023-01-19T17:10:10.975Z,43.20
2023-01-19T17:15:11.751Z,40.50
2023-01-19T17:20:11.161Z,46.40
2023-01-19T17:25:10.601Z,51.00
2023-01-19T17:30:10.789Z,41.90
2023-01-19T17:35:10.370Z,54.80
2023-01-19T17:40:10.857Z,54.30
2023-01-19T17:45:11.696Z,55.20
2023-01-19T17:50:10.424Z,53.10
2023-01-19T17:55:11.225Z,56.40
2023-01-19T18:00:10.759Z,54.20
2023-01-19T18:05:10.156Z,51.90
2023-01-19T18:10:10.102Z,61.20
2023-01-19T18:15:09.963Z,78.20
2023-01-19T18:20:10.068Z,92.30
2023-01-19T18:25:09.932Z,62.50
2023-01-19T18:30:09.804Z,55.20
2023-01-19T18:35:09.801Z,60.10
2023-01-19T18:40:09.810Z,56.20
2023-01-19T18:45:09.673Z,48.00
2023-01-19T18:50:09.587Z,49.00
2023-01-19T18:55:09.588Z,50.70
2023-01-19T19:00:10.628Z,48.20
2023-01-19T19:05:09.412Z,50.50
2023-01-19T19:10:09.421Z,51.00
2023-01-19T19:15:09.322Z,57.30
2023-01-19T19:20:09.205Z,45.00
2023-01-19T19:25:09.173Z,46.80
2023-01-19T19:30:09.269Z,45.60
2023-01-19T19:35:10.277Z,52.70
2023-01-19T19:40:09.030Z,39.70
2023-01-19T19:45:09.115Z,45.40
2023-01-19T19:50:08.941Z,54.60
2023-01-19T19:55:08.973Z,55.80
2023-01-19T20:00:08.807Z,52.40
2023-01-19T20:05:08.921Z,52.10
2023-01-19T20:10:08.809Z,48.90
2023-01-19T20:15:08.758Z,42.00
2023-01-19T20:20:08.621Z,45.90
2023-01-19T20:25:08.535Z,44.20
2023-01-19T20:30:08.476Z,48.80
2023-01-19T20:35:08.541Z,38.90
2023-01-19T20:40:08.363Z,47.20
2023-01-19T20:45:08.380Z,44.90
2023-01-19T20:50:08.410Z,43.60
2023-01-19T20:55:10.607Z,43.70
2023-01-19T21:00:08.293Z,35.10
2023-01-19T21:05:08.285Z,36.00
2023-01-19T21:10:07.982Z,35.00
2023-01-19T21:15:08.143Z,30.50
2023-01-19T21:20:07.904Z,45.60
2023-01-19T21:25:07.852Z,33.50
2023-01-19T21:30:07.860Z,42.30
2023-01-19T21:35:07.763Z,34.70
2023-01-19T21:40:07.772Z,42.40
2023-01-19T21:45:07.731Z,39.20
2023-01-19T21:50:07.723Z,66.20
2023-01-19T21:55:07.497Z,42.20
2023-01-19T22:00:07.622Z,32.90
2023-01-19T22:05:07.426Z,33.30
2023-01-19T22:10:07.382Z,45.30
2023-01-19T22:15:07.344Z,35.90
2023-01-19T22:20:07.952Z,36.60
2023-01-19T22:25:07.362Z,34.60
2023-01-19T22:30:09.220Z,33.20
2023-01-19T22:35:07.050Z,36.70
2023-01-19T22:40:07.083Z,31.40
2023-01-19T22:45:06.998Z,35.20
2023-01-19T22:50:06.953Z,35.60
2023-01-19T22:55:06.905Z,39.20
2023-01-19T23:00:06.962Z,37.40
2023-01-19T23:05:06.766Z,46.60
2023-01-19T23:10:06.792Z,41.30
2023-01-19T23:15:06.771Z,47.10
2023-01-19T23:20:06.688Z,42.30
2023-01-19T23:25:06.615Z,45.50
2023-01-19T23:30:06.504Z,40.00
2023-01-19T23:35:06.426Z,42.60
2023-01-19T23:40:06.398Z,41.50
2023-01-19T23:45:06.321Z,40.30
2023-01-19T23:50:08.387Z,37.30
2023-01-19T23:55:06.216Z,37.10
